Time;durP1;ratioP1;P1;durP2;ratioP2;P2;SDS_P1;SDS_P2;PMS_P1;PMS_P2;Temp;Humidity;BMP_temperature;BMP_pressure;BME280_temperature;BME280_humidity;BME280_pressure;Samples;Min_cycle;Max_cycle;Signal;HPM_P1;HPM_P2
2021/05/22 00:00:25;;;;;;;0.73;0.60;;;;;;;6.92;91.69;96298.72;4977169;28;20100;-58
2021/05/22 00:02:50;;;;;;;0.50;0.50;;;;;;;6.87;92.21;96297.03;4973375;28;20043;-62
2021/05/22 00:05:16;;;;;;;0.52;0.52;;;;;;;6.86;90.26;96288.09;4976014;28;20439;-61
2021/05/22 00:07:41;;;;;;;0.60;0.52;;;;;;;6.86;90.42;96290.81;4972499;28;20050;-61
2021/05/22 00:10:12;;;;;;;0.50;0.50;;;;;;;6.89;91.23;96284.66;4967404;28;20057;-59
2021/05/22 00:12:43;;;;;;;1.05;0.47;;;;;;;6.89;90.67;96287.38;4977018;28;20045;-61
2021/05/22 00:15:11;;;;;;;2.13;0.60;;;;;;;6.86;90.65;96281.84;4963796;28;20043;-60
2021/05/22 00:17:36;;;;;;;1.00;0.68;;;;;;;6.91;90.48;96273.41;4963830;28;20061;-60
2021/05/22 00:20:04;;;;;;;8.55;1.55;;;;;;;6.89;89.98;96260.16;4968157;28;20050;-61
2021/05/22 00:22:30;;;;;;;3.13;0.80;;;;;;;6.92;89.61;96231.44;4990283;28;20488;-60
2021/05/22 00:24:55;;;;;;;2.03;0.88;;;;;;;6.86;90.05;96209.16;4978745;28;20046;-63
2021/05/22 00:27:20;;;;;;;3.78;1.02;;;;;;;6.85;89.76;96214.94;4969941;28;20051;-62
2021/05/22 00:29:46;;;;;;;3.25;1.15;;;;;;;6.93;89.81;96221.34;4978757;28;20047;-59
2021/05/22 00:32:11;;;;;;;3.10;0.82;;;;;;;6.84;90.28;96225.06;4971412;28;20070;-61
2021/05/22 00:34:37;;;;;;;4.55;1.30;;;;;;;6.89;89.76;96249.25;4978553;28;20083;-60
2021/05/22 00:37:02;;;;;;;4.22;1.00;;;;;;;6.85;91.45;96272.13;4981041;28;20054;-62
2021/05/22 00:39:27;;;;;;;0.30;0.30;;;;;;;6.91;90.94;96272.63;4981848;28;20129;-61
2021/05/22 00:41:53;;;;;;;0.40;0.40;;;;;;;6.89;92.12;96271.03;4979839;28;20504;-61
2021/05/22 00:44:18;;;;;;;2.90;0.73;;;;;;;6.89;92.20;96283.88;4980632;28;20401;-59
2021/05/22 00:46:44;;;;;;;4.78;0.82;;;;;;;6.95;92.12;96292.56;4984231;28;20077;-61
2021/05/22 00:49:09;;;;;;;3.17;1.38;;;;;;;6.96;92.24;96294.94;4980492;28;20503;-60
2021/05/22 00:51:35;;;;;;;2.22;1.25;;;;;;;7.06;92.77;96290.91;4984809;28;20481;-61
2021/05/22 00:54:00;;;;;;;1.27;0.70;;;;;;;7.13;92.29;96293.78;4973031;28;20038;-61
2021/05/22 00:56:26;;;;;;;0.85;0.75;;;;;;;7.22;92.14;96297.09;4961397;28;20113;-60
2021/05/22 00:58:51;;;;;;;2.38;0.90;;;;;;;7.29;92.23;96304.63;4976277;28;20043;-61
2021/05/22 01:01:17;;;;;;;1.73;0.90;;;;;;;7.24;92.47;96304.94;4979383;28;20069;-60
2021/05/22 01:03:45;;;;;;;2.15;1.10;;;;;;;7.23;92.78;96295.94;4985333;28;20042;-61
2021/05/22 01:06:10;;;;;;;1.90;1.00;;;;;;;7.17;93.19;96277.53;4979447;28;20042;-61
2021/05/22 01:08:38;;;;;;;2.63;1.27;;;;;;;7.26;93.10;96273.44;4984309;28;20130;-61
2021/05/22 01:11:20;;;;;;;4.75;1.17;;;;;;;7.25;92.59;96268.34;4976712;28;20089;-62
2021/05/22 01:13:51;;;;;;;3.15;0.80;;;;;;;7.24;92.20;96280.41;4974540;28;20466;-60
2021/05/22 01:16:19;;;;;;;2.50;0.68;;;;;;;7.25;92.19;96266.41;4979813;28;20137;-60
2021/05/22 01:18:45;;;;;;;2.42;1.08;;;;;;;7.28;90.32;96267.66;4985316;28;20038;-61
2021/05/22 01:21:11;;;;;;;0.77;0.60;;;;;;;7.24;90.57;96264.84;4979503;28;20038;-62
2021/05/22 01:23:40;;;;;;;0.77;0.52;;;;;;;7.16;90.86;96274.00;4984006;28;20042;-60
2021/05/22 01:26:06;;;;;;;2.17;0.80;;;;;;;7.12;91.23;96264.97;4978107;28;20060;-60
2021/05/22 01:28:35;;;;;;;1.05;0.60;;;;;;;6.87;91.70;96262.44;4976712;28;20461;-61
2021/05/22 01:31:03;;;;;;;1.30;0.50;;;;;;;6.70;91.21;96257.38;4965519;28;20101;-61
2021/05/22 01:33:29;;;;;;;0.50;0.50;;;;;;;6.79;92.77;96262.63;4971597;28;20785;-59
2021/05/22 01:35:54;;;;;;;0.60;0.60;;;;;;;6.75;93.30;96250.88;4971092;28;20401;-60
2021/05/22 01:38:20;;;;;;;2.67;0.73;;;;;;;6.69;93.24;96251.13;4963446;28;20050;-61
2021/05/22 01:40:47;;;;;;;1.55;0.80;;;;;;;6.75;93.87;96261.75;4981109;28;20455;-59
2021/05/22 01:43:12;;;;;;;0.93;0.60;;;;;;;6.74;94.22;96258.25;4968932;28;20042;-60
2021/05/22 01:45:41;;;;;;;0.60;0.60;;;;;;;6.75;93.27;96254.38;4983890;28;20513;-60
2021/05/22 01:48:10;;;;;;;2.53;0.70;;;;;;;6.85;93.42;96256.56;4959719;28;20134;-60
2021/05/22 01:50:40;;;;;;;1.75;0.75;;;;;;;6.93;93.18;96265.69;4968242;28;20509;-60
2021/05/22 01:53:08;;;;;;;2.75;1.00;;;;;;;6.93;93.70;96259.44;4978221;28;20034;-61
2021/05/22 01:55:36;;;;;;;2.95;0.90;;;;;;;7.04;93.83;96265.94;4983446;28;20117;-60
2021/05/22 01:58:03;;;;;;;2.83;1.25;;;;;;;7.07;93.38;96273.41;4984106;28;20121;-60
2021/05/22 02:00:28;;;;;;;3.10;0.90;;;;;;;6.94;94.64;96266.50;4978178;28;20053;-60
2021/05/22 02:03:00;;;;;;;4.90;1.02;;;;;;;6.98;94.29;96267.34;4980612;28;20038;-61
2021/05/22 02:05:27;;;;;;;2.25;0.93;;;;;;;7.03;94.51;96250.75;4975769;28;20136;-60
2021/05/22 02:07:56;;;;;;;5.45;1.35;;;;;;;6.93;94.00;96234.94;4963994;28;20492;-61
2021/05/22 02:10:23;;;;;;;1.30;0.73;;;;;;;6.68;95.76;96227.78;4959301;28;20132;-60
2021/05/22 02:12:49;;;;;;;1.75;0.70;;;;;;;6.59;97.07;96220.94;4982528;28;20047;-60
2021/05/22 02:15:15;;;;;;;1.10;0.70;;;;;;;6.47;97.58;96222.63;4977889;28;20066;-60
2021/05/22 02:17:44;;;;;;;1.10;0.63;;;;;;;6.61;97.26;96243.94;4981157;28;20048;-60
2021/05/22 02:20:10;;;;;;;1.87;0.87;;;;;;;6.62;96.29;96245.50;4977146;28;20117;-61
2021/05/22 02:22:40;;;;;;;1.02;0.70;;;;;;;6.73;96.26;96240.31;4983681;28;20049;-60
2021/05/22 02:25:06;;;;;;;1.45;0.80;;;;;;;6.92;96.26;96242.34;4978269;28;20035;-60
2021/05/22 02:27:33;;;;;;;0.85;0.60;;;;;;;7.03;95.37;96256.19;4986584;28;20050;-59
2021/05/22 02:30:00;;;;;;;1.85;0.70;;;;;;;7.19;95.29;96256.16;4979990;28;20073;-60
2021/05/22 02:32:28;;;;;;;0.98;0.75;;;;;;;7.32;93.29;96245.94;4976153;28;20050;-61
2021/05/22 02:34:55;;;;;;;4.88;1.00;;;;;;;7.14;92.70;96240.09;4983044;28;20108;-60
2021/05/22 02:37:26;;;;;;;4.15;1.35;;;;;;;7.01;93.16;96236.72;4976971;28;20046;-60
2021/05/22 02:39:55;;;;;;;2.13;0.70;;;;;;;6.92;93.42;96223.28;4977170;28;20060;-61
2021/05/22 02:42:22;;;;;;;0.88;0.60;;;;;;;6.81;92.13;96220.31;4971892;28;20050;-61
2021/05/22 02:44:51;;;;;;;1.95;1.02;;;;;;;6.65;94.20;96223.03;4979255;28;20043;-60
2021/05/22 02:47:20;;;;;;;1.05;0.98;;;;;;;6.71;94.23;96234.44;4972895;28;20086;-61
2021/05/22 02:49:48;;;;;;;1.52;0.80;;;;;;;6.68;95.33;96241.41;4980887;28;20042;-61
2021/05/22 02:52:17;;;;;;;1.50;0.65;;;;;;;6.54;95.19;96235.63;4977172;28;20042;-58
2021/05/22 02:54:45;;;;;;;1.27;0.70;;;;;;;6.44;95.21;96230.69;4983733;28;20042;-60
2021/05/22 02:57:13;;;;;;;2.17;1.10;;;;;;;6.44;95.99;96239.63;4977869;28;20112;-62
2021/05/22 02:59:42;;;;;;;5.75;2.58;;;;;;;6.38;96.40;96232.88;4981020;28;20081;-61
2021/05/22 03:02:09;;;;;;;2.57;1.07;;;;;;;6.34;97.98;96234.72;4976525;28;20385;-61
2021/05/22 03:04:34;;;;;;;4.93;1.00;;;;;;;6.35;98.40;96240.97;4971543;28;20042;-57
2021/05/22 03:07:03;;;;;;;1.13;0.80;;;;;;;6.40;98.40;96229.81;4989562;28;20069;-62
2021/05/22 03:09:29;;;;;;;1.77;1.00;;;;;;;6.41;98.50;96234.91;4986050;28;20133;-61
2021/05/22 03:11:55;;;;;;;0.80;0.60;;;;;;;6.48;97.78;96231.56;4987020;28;20141;-60
2021/05/22 03:14:22;;;;;;;1.60;0.90;;;;;;;6.61;98.43;96222.19;4979757;28;20050;-61
2021/05/22 03:16:48;;;;;;;0.90;0.70;;;;;;;6.64;98.58;96212.50;4980122;28;20538;-59
2021/05/22 03:19:14;;;;;;;1.85;0.70;;;;;;;6.68;97.73;96224.25;4966647;28;20042;-59
2021/05/22 03:21:39;;;;;;;0.60;0.55;;;;;;;6.79;97.81;96227.22;4981931;28;20042;-61
2021/05/22 03:24:06;;;;;;;0.60;0.60;;;;;;;6.88;97.59;96236.03;4972164;28;20049;-61
2021/05/22 03:26:32;;;;;;;0.90;0.70;;;;;;;7.03;96.37;96237.13;4974642;28;20047;-60
2021/05/22 03:28:57;;;;;;;2.58;0.77;;;;;;;7.04;96.36;96227.81;4980888;28;20073;-59
2021/05/22 03:31:23;;;;;;;0.70;0.70;;;;;;;7.02;95.52;96224.66;4975990;28;20973;-56
2021/05/22 03:33:49;;;;;;;0.95;0.82;;;;;;;6.94;95.31;96228.38;4977936;28;20038;-59
2021/05/22 03:36:14;;;;;;;0.50;0.50;;;;;;;6.93;95.57;96232.22;4975088;28;20453;-59
2021/05/22 03:38:40;;;;;;;0.80;0.70;;;;;;;7.05;96.14;96226.69;4978421;28;20701;-61
2021/05/22 03:41:05;;;;;;;1.88;0.60;;;;;;;7.13;95.75;96233.88;4973042;28;20056;-59
2021/05/22 03:43:32;;;;;;;0.80;0.77;;;;;;;7.09;95.60;96235.69;4978450;28;20052;-61
2021/05/22 03:45:58;;;;;;;1.10;0.68;;;;;;;7.01;94.28;96220.38;4980097;28;20574;-60
2021/05/22 03:48:23;;;;;;;0.57;0.55;;;;;;;7.00;94.23;96221.50;4971696;28;20133;-61
2021/05/22 03:50:49;;;;;;;0.75;0.55;;;;;;;7.14;94.38;96224.53;4975218;28;20042;-60
2021/05/22 03:53:14;;;;;;;1.63;0.70;;;;;;;7.17;93.53;96233.94;4973712;28;20077;-61
2021/05/22 03:55:40;;;;;;;3.63;0.80;;;;;;;7.28;92.91;96246.63;4980550;28;20442;-60
2021/05/22 03:58:07;;;;;;;0.55;0.55;;;;;;;7.56;89.56;96247.59;4973053;28;20053;-61
2021/05/22 04:00:32;;;;;;;0.95;0.63;;;;;;;7.55;88.89;96252.28;4979816;28;20077;-59
2021/05/22 04:02:58;;;;;;;1.45;0.73;;;;;;;7.46;89.59;96252.47;4976417;28;20440;-61
2021/05/22 04:05:23;;;;;;;0.70;0.60;;;;;;;7.41;90.66;96255.47;4972301;28;20380;-61
2021/05/22 04:07:49;;;;;;;1.60;0.50;;;;;;;7.41;91.67;96254.69;4978244;28;20042;-59
2021/05/22 04:10:14;;;;;;;1.25;0.63;;;;;;;7.36;91.57;96255.75;4975040;28;20089;-58
2021/05/22 04:12:39;;;;;;;1.40;0.70;;;;;;;7.32;92.39;96252.16;4980153;28;20050;-61
2021/05/22 04:15:05;;;;;;;3.42;1.08;;;;;;;7.20;91.93;96261.25;4967966;28;20034;-60
2021/05/22 04:17:31;;;;;;;1.25;0.55;;;;;;;7.16;92.74;96263.09;4985795;28;20046;-62
2021/05/22 04:19:56;;;;;;;1.45;0.73;;;;;;;7.24;93.67;96266.78;4988347;28;20084;-61
2021/05/22 04:22:21;;;;;;;0.75;0.75;;;;;;;7.41;93.00;96257.41;4996525;28;20050;-62
2021/05/22 04:24:47;;;;;;;1.27;0.70;;;;;;;7.46;93.35;96259.88;4980019;28;20035;-62
2021/05/22 04:27:12;;;;;;;1.02;0.60;;;;;;;7.53;93.93;96264.69;4974648;28;20081;-59
2021/05/22 04:29:38;;;;;;;1.70;0.75;;;;;;;7.53;93.77;96267.41;4972147;28;20046;-61
2021/05/22 04:32:04;;;;;;;0.70;0.70;;;;;;;7.43;94.03;96258.63;4976131;28;20050;-61
2021/05/22 04:34:29;;;;;;;3.35;2.35;;;;;;;7.48;93.56;96268.47;4979023;28;20062;-60
2021/05/22 04:36:54;;;;;;;2.95;1.00;;;;;;;7.54;93.56;96261.56;4979819;28;20250;-60
2021/05/22 04:39:20;;;;;;;5.55;3.08;;;;;;;7.49;93.20;96269.25;4974321;28;20480;-60
2021/05/22 04:41:46;;;;;;;6.80;4.30;;;;;;;7.54;93.08;96263.53;4979376;28;20483;-62
2021/05/22 04:44:11;;;;;;;2.25;1.00;;;;;;;7.71;91.08;96262.34;4971640;28;20143;-61
2021/05/22 04:46:37;;;;;;;2.25;0.90;;;;;;;7.90;88.84;96254.13;4976871;28;20050;-61
2021/05/22 04:49:03;;;;;;;1.38;0.90;;;;;;;7.80;88.86;96263.69;4975807;28;20038;-62
2021/05/22 04:51:29;;;;;;;0.73;0.60;;;;;;;8.02;87.82;96250.47;4979096;28;20050;-57
2021/05/22 04:54:04;;;;;;;0.50;0.50;;;;;;;8.06;87.42;96256.00;4978436;28;20497;-58
2021/05/22 04:56:29;;;;;;;0.68;0.60;;;;;;;8.10;85.71;96254.88;4973199;28;20070;-61
2021/05/22 04:58:55;;;;;;;1.08;0.70;;;;;;;8.14;86.56;96257.69;4977789;28;20715;-61
2021/05/22 05:01:20;;;;;;;0.63;0.60;;;;;;;8.18;87.40;96256.63;4970613;28;20133;-61
2021/05/22 05:03:46;;;;;;;3.30;0.70;;;;;;;8.25;87.28;96261.41;4980327;28;20391;-61
2021/05/22 05:06:11;;;;;;;1.23;0.43;;;;;;;8.31;88.17;96262.69;4975210;28;20050;-61
2021/05/22 05:08:37;;;;;;;0.80;0.70;;;;;;;8.41;87.09;96266.78;4980872;28;20551;-61
2021/05/22 05:11:03;;;;;;;1.02;0.50;;;;;;;8.63;84.26;96270.69;4973741;28;20063;-62
2021/05/22 05:13:28;;;;;;;1.33;0.80;;;;;;;8.93;82.06;96272.72;4972632;28;20043;-61
2021/05/22 05:15:53;;;;;;;0.85;0.75;;;;;;;9.04;81.61;96272.88;4978756;28;20046;-62
2021/05/22 05:18:19;;;;;;;0.75;0.60;;;;;;;9.66;79.38;96258.94;4973032;28;20129;-59
2021/05/22 05:20:44;;;;;;;1.27;0.80;;;;;;;9.91;78.87;96257.28;4982250;28;20061;-58
2021/05/22 05:23:09;;;;;;;2.33;0.73;;;;;;;10.63;72.35;96258.06;4975717;28;20057;-59
2021/05/22 05:25:35;;;;;;;1.85;0.77;;;;;;;11.86;69.80;96265.13;4975494;28;20043;-61
2021/05/22 05:28:00;;;;;;;1.08;0.50;;;;;;;13.51;62.27;96250.84;4983208;28;20057;-59
2021/05/22 05:30:26;;;;;;;0.55;0.30;;;;;;;14.21;60.31;96247.44;4972647;28;20050;-61
2021/05/22 05:32:51;;;;;;;0.65;0.40;;;;;;;14.86;57.27;96250.59;4981361;28;20747;-61
2021/05/22 05:35:17;;;;;;;0.22;0.22;;;;;;;14.61;57.57;96257.06;4977898;28;20516;-62
2021/05/22 05:37:42;;;;;;;0.50;0.40;;;;;;;14.87;56.82;96263.97;4983072;28;20069;-60
2021/05/22 05:40:08;;;;;;;2.60;0.32;;;;;;;15.96;55.46;96267.28;4977493;28;20190;-61
2021/05/22 05:42:34;;;;;;;0.32;0.30;;;;;;;14.83;57.23;96267.94;4981767;28;20038;-61
2021/05/22 05:45:00;;;;;;;0.95;0.40;;;;;;;14.78;56.76;96260.09;4982436;28;20562;-62
2021/05/22 05:47:26;;;;;;;0.28;0.28;;;;;;;15.34;55.24;96265.53;4972850;28;20070;-61
2021/05/22 05:49:51;;;;;;;1.00;0.30;;;;;;;15.48;57.20;96265.41;4980657;28;20139;-61
2021/05/22 05:52:17;;;;;;;0.63;0.30;;;;;;;16.44;51.77;96273.81;4977705;28;20061;-59
2021/05/22 05:54:42;;;;;;;0.98;0.32;;;;;;;16.10;53.08;96269.09;4983102;28;20404;-62
2021/05/22 05:57:07;;;;;;;0.68;0.35;;;;;;;15.13;55.35;96269.28;4978500;28;20042;-61
2021/05/22 05:59:33;;;;;;;1.40;0.40;;;;;;;14.36;56.56;96262.69;4980000;28;20053;-58
2021/05/22 06:01:58;;;;;;;2.40;0.88;;;;;;;13.52;60.22;96266.94;4980545;28;20479;-58
2021/05/22 06:04:26;;;;;;;2.33;0.40;;;;;;;13.45;61.02;96272.47;4975421;28;20829;-63
2021/05/22 06:06:53;;;;;;;0.40;0.40;;;;;;;14.27;58.41;96262.34;4978093;28;20096;-59
2021/05/22 06:09:19;;;;;;;1.25;0.40;;;;;;;14.71;56.87;96260.91;4974583;28;20042;-59
2021/05/22 06:11:44;;;;;;;1.17;0.50;;;;;;;14.79;58.79;96267.97;4981167;28;20077;-59
2021/05/22 06:14:15;;;;;;;1.08;0.40;;;;;;;16.04;53.29;96265.22;4975316;28;20474;-60
2021/05/22 06:16:42;;;;;;;1.13;0.55;;;;;;;15.00;58.34;96260.69;4981361;28;20599;-60
2021/05/22 06:19:07;;;;;;;0.43;0.30;;;;;;;14.48;58.35;96258.69;4977247;28;20511;-60
2021/05/22 06:21:37;;;;;;;1.02;0.50;;;;;;;13.11;61.78;96272.88;4979270;28;20058;-59
2021/05/22 06:24:03;;;;;;;2.58;0.35;;;;;;;12.73;62.87;96268.91;4972440;28;20434;-61
2021/05/22 06:26:29;;;;;;;4.43;0.70;;;;;;;12.06;64.82;96271.13;4979471;28;20056;-60
2021/05/22 06:28:54;;;;;;;1.60;0.85;;;;;;;11.37;68.47;96275.44;4980245;28;20050;-58
2021/05/22 06:31:19;;;;;;;3.45;1.10;;;;;;;11.16;71.11;96278.03;4977169;28;20038;-59
2021/05/22 06:33:45;;;;;;;1.02;0.60;;;;;;;11.30;69.35;96272.66;4980646;28;20484;-60
2021/05/22 06:36:10;;;;;;;2.88;0.50;;;;;;;11.17;70.82;96280.41;4971108;28;20129;-61
2021/05/22 06:38:36;;;;;;;1.75;0.65;;;;;;;11.00;70.25;96273.63;4973555;28;20410;-58
2021/05/22 06:41:02;;;;;;;3.72;0.70;;;;;;;10.96;72.94;96278.28;4981794;28;20057;-60
2021/05/22 06:43:27;;;;;;;1.15;0.50;;;;;;;10.89;72.50;96270.00;4977450;28;20380;-59
2021/05/22 06:45:58;;;;;;;3.50;0.80;;;;;;;10.64;73.41;96280.75;4980675;28;20064;-60
2021/05/22 06:48:24;;;;;;;1.02;0.52;;;;;;;10.69;73.60;96272.19;4971930;28;20050;-59
2021/05/22 06:50:50;;;;;;;2.40;0.70;;;;;;;10.71;72.69;96270.66;4978052;28;20129;-60
2021/05/22 06:53:15;;;;;;;3.20;0.73;;;;;;;10.79;73.01;96278.94;4969968;28;20128;-57
2021/05/22 06:55:41;;;;;;;6.07;1.15;;;;;;;10.82;72.48;96280.91;4973471;28;20109;-59
2021/05/22 06:58:06;;;;;;;4.13;1.27;;;;;;;11.39;70.28;96269.59;4977550;28;20062;-60
2021/05/22 07:00:32;;;;;;;5.82;1.90;;;;;;;11.83;67.85;96272.19;4982626;28;20042;-59
2021/05/22 07:02:57;;;;;;;3.70;1.20;;;;;;;11.28;70.09;96275.78;4981785;28;20057;-60
2021/05/22 07:05:23;;;;;;;3.97;0.98;;;;;;;11.48;69.32;96273.56;4973635;28;20591;-62
2021/05/22 07:07:48;;;;;;;6.05;1.10;;;;;;;11.29;69.36;96271.88;4980915;28;20080;-60
2021/05/22 07:10:14;;;;;;;3.05;0.70;;;;;;;11.17;69.90;96274.16;4973285;28;20491;-59
2021/05/22 07:12:39;;;;;;;3.90;1.02;;;;;;;11.42;70.32;96274.31;4977128;28;20085;-60
2021/05/22 07:15:07;;;;;;;7.03;1.67;;;;;;;11.26;69.32;96266.38;4973447;28;20042;-58
2021/05/22 07:17:32;;;;;;;6.75;1.00;;;;;;;11.53;68.03;96266.16;4981275;28;20054;-60
2021/05/22 07:19:58;;;;;;;2.78;0.80;;;;;;;11.63;65.55;96270.88;4977824;28;20053;-60
2021/05/22 07:22:23;;;;;;;3.72;0.75;;;;;;;11.82;65.03;96273.34;4975002;28;20046;-58
2021/05/22 07:24:49;;;;;;;5.95;1.10;;;;;;;11.90;64.29;96274.19;4979180;28;20038;-61
2021/05/22 07:27:18;;;;;;;3.15;0.63;;;;;;;12.86;62.34;96272.09;4975905;28;20039;-59
2021/05/22 07:29:46;;;;;;;2.72;0.70;;;;;;;13.72;58.20;96270.03;4980505;28;20050;-62
2021/05/22 07:32:12;;;;;;;4.50;0.85;;;;;;;14.88;54.20;96268.28;4970352;28;20389;-61
2021/05/22 07:34:37;;;;;;;8.95;1.80;;;;;;;15.62;54.67;96275.53;4972182;28;20104;-60
2021/05/22 07:37:02;;;;;;;7.35;1.48;;;;;;;14.20;56.67;96274.16;4970852;28;20621;-62
2021/05/22 07:39:28;;;;;;;2.30;0.47;;;;;;;14.59;54.75;96284.22;4985647;28;20046;-61
2021/05/22 07:41:53;;;;;;;2.22;0.70;;;;;;;13.90;55.84;96280.19;4991054;28;20077;-61
2021/05/22 07:44:19;;;;;;;5.55;0.90;;;;;;;13.05;59.67;96276.38;4975326;28;20092;-60
2021/05/22 07:46:44;;;;;;;3.28;0.63;;;;;;;13.02;60.29;96286.22;4981476;28;20100;-60
2021/05/22 07:49:10;;;;;;;4.13;0.88;;;;;;;13.46;60.45;96289.75;4970978;28;20039;-61
2021/05/22 07:51:36;;;;;;;6.00;1.88;;;;;;;12.98;60.33;96291.72;4981829;28;20058;-62
2021/05/22 07:54:01;;;;;;;3.58;0.60;;;;;;;12.60;61.44;96296.78;4973853;28;20579;-61
2021/05/22 07:56:27;;;;;;;6.90;1.05;;;;;;;12.47;62.38;96297.53;4975033;28;20097;-59
2021/05/22 07:58:52;;;;;;;3.05;0.82;;;;;;;12.61;61.31;96297.56;4979105;28;20120;-60
2021/05/22 08:01:18;;;;;;;5.18;0.80;;;;;;;12.34;61.91;96297.09;4973916;28;20049;-61
2021/05/22 08:03:44;;;;;;;2.25;1.10;;;;;;;12.33;62.71;96304.53;4973618;28;20053;-61
2021/05/22 08:06:09;;;;;;;3.20;0.80;;;;;;;12.03;62.60;96307.59;4966721;28;20080;-61
2021/05/22 08:08:35;;;;;;;3.88;1.00;;;;;;;11.77;62.58;96305.84;4973125;28;20133;-61
2021/05/22 08:11:00;;;;;;;3.90;0.88;;;;;;;11.99;62.09;96306.75;4985029;28;20042;-61
2021/05/22 08:13:28;;;;;;;12.85;1.58;;;;;;;11.82;62.29;96291.78;4968951;28;20046;-61
2021/05/22 08:15:55;;;;;;;6.40;1.45;;;;;;;12.33;61.28;96292.78;4980314;28;20038;-60
2021/05/22 08:18:21;;;;;;;8.20;1.63;;;;;;;12.87;61.15;96292.88;4974957;28;20499;-60
2021/05/22 08:20:47;;;;;;;13.68;2.75;;;;;;;13.48;59.10;96290.13;4978603;28;20043;-58
2021/05/22 08:23:12;;;;;;;6.30;1.60;;;;;;;13.16;57.82;96291.72;4967705;28;20045;-58
2021/05/22 08:25:38;;;;;;;6.45;1.35;;;;;;;13.71;56.60;96289.69;4979300;28;20049;-58
2021/05/22 08:28:03;;;;;;;3.20;0.70;;;;;;;13.75;55.96;96287.72;4974320;28;20088;-59
2021/05/22 08:30:29;;;;;;;3.70;0.90;;;;;;;14.00;55.49;96287.63;4978313;28;20051;-59
2021/05/22 08:32:54;;;;;;;5.43;1.00;;;;;;;14.00;55.75;96292.38;4977213;28;20055;-62
2021/05/22 08:35:20;;;;;;;6.45;1.27;;;;;;;13.95;56.48;96282.53;4989769;28;20053;-61
2021/05/22 08:37:45;;;;;;;3.70;0.90;;;;;;;14.20;54.26;96292.69;4978962;28;20534;-60
2021/05/22 08:40:12;;;;;;;6.05;1.00;;;;;;;14.07;55.35;96281.31;4974221;28;20050;-60
2021/05/22 08:42:37;;;;;;;3.08;0.90;;;;;;;13.81;55.33;96288.91;4978769;28;20117;-61
2021/05/22 08:45:12;;;;;;;6.47;1.58;;;;;;;13.69;56.63;96284.59;4974375;28;20042;-61
2021/05/22 08:47:38;;;;;;;4.78;1.02;;;;;;;14.04;55.65;96284.88;4961053;28;20520;-60
2021/05/22 08:50:07;;;;;;;3.00;0.85;;;;;;;13.99;54.81;96293.53;4958968;28;20039;-62
2021/05/22 08:52:32;;;;;;;5.80;0.85;;;;;;;13.91;55.57;96298.28;4961208;28;20046;-61
2021/05/22 08:54:58;;;;;;;5.53;2.17;;;;;;;14.20;55.40;96295.44;4972507;28;20057;-61
2021/05/22 08:57:24;;;;;;;4.80;0.77;;;;;;;14.81;53.01;96293.16;4979852;28;20242;-62
2021/05/22 08:59:49;;;;;;;4.30;0.70;;;;;;;14.34;53.74;96292.59;4985557;28;20067;-62
2021/05/22 09:02:20;;;;;;;8.48;1.17;;;;;;;14.45;53.17;96282.31;4984127;28;20115;-62
2021/05/22 09:05:37;;;;;;;4.82;1.00;;;;;;;14.91;51.58;96292.28;4990939;28;20137;-62
2021/05/22 09:08:11;;;;;;;2.85;0.80;;;;;;;14.18;53.41;96275.78;4936355;28;20514;-61
2021/05/22 09:10:40;;;;;;;5.35;0.82;;;;;;;14.69;52.89;96290.84;4978811;28;20900;-62
2021/05/22 09:13:08;;;;;;;3.13;0.65;;;;;;;15.73;51.02;96278.94;4971385;28;20171;-61
2021/05/22 09:15:42;;;;;;;2.83;0.77;;;;;;;15.94;47.43;96283.50;4977997;28;20570;-61
2021/05/22 09:18:12;;;;;;;3.28;0.90;;;;;;;16.55;46.92;96293.00;4971714;28;20217;-62
2021/05/22 09:20:43;;;;;;;3.53;0.77;;;;;;;16.11;48.32;96278.16;4975879;28;20055;-62
2021/05/22 09:23:12;;;;;;;1.17;0.63;;;;;;;16.24;46.28;96276.41;4984316;28;20057;-62
2021/05/22 09:25:45;;;;;;;4.38;1.35;;;;;;;15.90;46.07;96280.00;4981327;28;20049;-61
2021/05/22 09:28:12;;;;;;;2.75;0.80;;;;;;;16.01;46.77;96280.66;4978929;28;20046;-62
2021/05/22 09:30:40;;;;;;;4.20;1.00;;;;;;;16.12;47.08;96274.22;4981907;28;20046;-61
2021/05/22 09:33:13;;;;;;;3.22;0.82;;;;;;;16.12;47.93;96285.28;4969314;28;20076;-60
2021/05/22 09:35:39;;;;;;;4.30;1.10;;;;;;;16.39;47.41;96288.09;4983139;28;20519;-61
2021/05/22 09:38:05;;;;;;;6.82;1.95;;;;;;;16.70;45.75;96274.22;4990940;28;20076;-61
2021/05/22 09:40:31;;;;;;;4.10;0.90;;;;;;;16.91;46.58;96282.22;4982193;28;20042;-61
2021/05/22 09:42:58;;;;;;;9.82;4.15;;;;;;;16.59;45.64;96282.69;4979780;28;20046;-63
2021/05/22 09:45:35;;;;;;;10.73;3.22;;;;;;;16.70;45.37;96275.00;4988664;28;20617;-60
2021/05/22 09:48:17;;;;;;;5.07;1.05;;;;;;;17.53;43.32;96263.41;4982270;28;20133;-60
2021/05/22 09:50:53;;;;;;;4.03;0.73;;;;;;;17.40;42.78;96265.22;4975893;28;20048;-61
2021/05/22 09:53:39;;;;;;;3.63;0.70;;;;;;;16.47;46.46;96269.41;4970223;28;20047;-61
2021/05/22 09:56:26;;;;;;;3.67;0.73;;;;;;;16.38;45.84;96270.69;4969007;28;20070;-60
2021/05/22 09:58:57;;;;;;;6.07;0.77;;;;;;;16.21;47.24;96277.25;4981591;28;20046;-63
2021/05/22 10:01:31;;;;;;;3.60;0.80;;;;;;;16.29;46.17;96273.19;4971889;28;20085;-59
2021/05/22 10:04:16;;;;;;;2.75;1.13;;;;;;;16.49;46.25;96269.78;4979544;28;20050;-62
2021/05/22 10:06:42;;;;;;;3.28;0.90;;;;;;;16.84;45.13;96271.28;4975417;28;20582;-62
2021/05/22 10:09:15;;;;;;;4.05;0.80;;;;;;;16.20;46.16;96265.41;4967930;28;20043;-62
2021/05/22 10:12:10;;;;;;;1.52;0.60;;;;;;;16.66;46.29;96267.97;4978735;28;20054;-62
2021/05/22 10:14:41;;;;;;;1.88;0.73;;;;;;;17.71;44.43;96270.59;4980077;28;20111;-60
2021/05/22 10:17:09;;;;;;;3.03;0.60;;;;;;;17.33;43.97;96260.59;4967433;28;20042;-60
2021/05/22 10:19:36;;;;;;;2.40;0.60;;;;;;;17.09;42.64;96268.13;4977808;28;20576;-61
2021/05/22 10:22:03;;;;;;;1.77;0.70;;;;;;;16.43;44.84;96269.47;4978141;28;20060;-62
2021/05/22 10:24:30;;;;;;;4.88;0.90;;;;;;;16.26;44.80;96257.47;4975571;28;20391;-57
2021/05/22 10:26:56;;;;;;;2.40;0.60;;;;;;;16.20;44.11;96264.63;4975845;28;20035;-61
2021/05/22 10:29:22;;;;;;;7.25;1.25;;;;;;;16.66;46.01;96265.22;4969674;28;20717;-59
2021/05/22 10:31:49;;;;;;;2.17;0.77;;;;;;;16.27;46.17;96255.47;4979983;28;20054;-61
2021/05/22 10:34:16;;;;;;;4.63;0.93;;;;;;;16.58;44.04;96273.59;4958273;28;20130;-60
2021/05/22 10:36:59;;;;;;;2.47;0.60;;;;;;;16.90;44.61;96272.34;4971970;28;20046;-60
2021/05/22 10:39:39;;;;;;;5.68;0.85;;;;;;;16.87;45.93;96269.66;4971646;28;20489;-59
2021/05/22 10:42:06;;;;;;;3.08;0.80;;;;;;;16.62;44.84;96262.50;4976598;28;20043;-61
2021/05/22 10:44:35;;;;;;;3.17;1.00;;;;;;;16.71;45.21;96270.25;4978142;28;20150;-61
2021/05/22 10:47:16;;;;;;;4.40;0.95;;;;;;;17.47;43.84;96265.09;4974650;28;20464;-63
2021/05/22 10:49:57;;;;;;;3.85;0.70;;;;;;;17.62;44.06;96262.84;4963610;28;20145;-61
2021/05/22 10:52:27;;;;;;;1.20;0.50;;;;;;;17.19;42.89;96264.38;4957965;28;20866;-60
2021/05/22 10:55:10;;;;;;;3.30;0.82;;;;;;;17.09;44.31;96264.59;4963452;28;20507;-62
2021/05/22 10:57:41;;;;;;;5.15;0.90;;;;;;;17.09;46.86;96261.81;4963247;28;20061;-61
2021/05/22 11:00:16;;;;;;;2.42;0.80;;;;;;;17.00;44.49;96254.03;4972314;28;20100;-61
2021/05/22 11:02:45;;;;;;;4.45;0.77;;;;;;;16.50;45.00;96246.47;4982496;28;20065;-59
2021/05/22 11:05:28;;;;;;;3.23;0.90;;;;;;;16.57;44.91;96252.69;4977306;28;20108;-61
2021/05/22 11:08:03;;;;;;;4.20;0.57;;;;;;;17.10;44.06;96239.22;4979991;28;20399;-63
2021/05/22 11:10:38;;;;;;;2.72;0.70;;;;;;;17.38;43.82;96240.75;4996063;28;20058;-63
2021/05/22 11:13:05;;;;;;;1.92;0.70;;;;;;;17.61;42.43;96238.34;4960629;28;20159;-61
2021/05/22 11:15:44;;;;;;;2.22;0.57;;;;;;;17.27;43.24;96228.28;4981675;28;20038;-59
2021/05/22 11:18:11;;;;;;;1.40;0.50;;;;;;;17.52;44.32;96222.28;4979309;28;20039;-61
2021/05/22 11:20:38;;;;;;;2.65;0.80;;;;;;;17.22;43.76;96229.56;4982563;28;20133;-60
2021/05/22 11:23:04;;;;;;;1.95;0.73;;;;;;;17.13;43.37;96229.31;4979851;28;20575;-58
2021/05/22 11:25:46;;;;;;;4.15;0.80;;;;;;;17.17;42.68;96233.59;4977467;28;20062;-61
2021/05/22 11:28:20;;;;;;;3.30;0.70;;;;;;;17.28;43.05;96229.84;4974544;28;20850;-58
2021/05/22 11:30:48;;;;;;;3.65;0.80;;;;;;;17.13;41.42;96229.31;4979804;28;20050;-62
2021/05/22 11:33:22;;;;;;;3.78;0.88;;;;;;;17.09;41.49;96228.63;4973450;28;20137;-64
2021/05/22 11:35:53;;;;;;;5.07;1.15;;;;;;;17.39;41.29;96235.97;4977282;28;20050;-60
2021/05/22 11:38:19;;;;;;;5.25;0.65;;;;;;;17.29;41.81;96231.44;4975628;28;20043;-60